sensor_id;sensor_type;location;lat;lon;timestamp;pressure;altitude;pressure_sealevel;temperature;humidity
13732;BME280;6937;56.096;12.664;2022-10-16T00:01:46;102674.81;;;14.11;100.00
13732;BME280;6937;56.096;12.664;2022-10-16T00:04:12;102539.81;;;13.74;100.00
13732;BME280;6937;56.096;12.664;2022-10-16T00:06:38;102557.75;;;14.05;100.00
13732;BME280;6937;56.096;12.664;2022-10-16T00:09:04;102551.03;;;14.12;100.00
13732;BME280;6937;56.096;12.664;2022-10-16T00:11:32;102527.41;;;14.17;100.00
13732;BME280;6937;56.096;12.664;2022-10-16T00:14:00;102535.59;;;14.16;100.00
13732;BME280;6937;56.096;12.664;2022-10-16T00:16:27;102544.38;;;14.03;100.00
13732;BME280;6937;56.096;12.664;2022-10-16T00:18:53;102598.22;;;14.18;100.00
13732;BME280;6937;56.096;12.664;2022-10-16T00:21:24;102655.75;;;14.15;100.00
13732;BME280;6937;56.096;12.664;2022-10-16T00:23:55;102737.53;;;14.11;100.00
13732;BME280;6937;56.096;12.664;2022-10-16T00:26:21;102866.78;;;14.08;100.00
13732;BME280;6937;56.096;12.664;2022-10-16T00:28:50;103083.31;;;13.62;100.00
13732;BME280;6937;56.096;12.664;2022-10-16T00:31:18;103389.66;;;14.02;100.00
13732;BME280;6937;56.096;12.664;2022-10-16T00:33:44;103545.75;;;14.01;100.00
13732;BME280;6937;56.096;12.664;2022-10-16T00:36:11;103662.44;;;13.97;100.00
13732;BME280;6937;56.096;12.664;2022-10-16T00:38:38;103761.19;;;13.93;100.00
13732;BME280;6937;56.096;12.664;2022-10-16T00:41:04;103823.63;;;13.78;100.00
13732;BME280;6937;56.096;12.664;2022-10-16T00:43:48;103913.06;;;13.83;100.00
13732;BME280;6937;56.096;12.664;2022-10-16T00:48:56;103948.91;;;13.31;100.00
13732;BME280;6937;56.096;12.664;2022-10-16T00:51:25;104055.09;;;13.71;100.00
13732;BME280;6937;56.096;12.664;2022-10-16T00:53:54;104065.19;;;13.64;100.00
13732;BME280;6937;56.096;12.664;2022-10-16T00:56:20;104086.84;;;13.60;100.00
13732;BME280;6937;56.096;12.664;2022-10-16T00:58:45;104111.91;;;13.60;100.00
13732;BME280;6937;56.096;12.664;2022-10-16T01:01:11;104121.72;;;13.61;100.00
13732;BME280;6937;56.096;12.664;2022-10-16T01:03:37;104135.09;;;13.64;100.00
13732;BME280;6937;56.096;12.664;2022-10-16T01:06:23;104102.06;;;13.59;100.00
13732;BME280;6937;56.096;12.664;2022-10-16T01:11:41;104029.97;;;13.16;100.00
13732;BME280;6937;56.096;12.664;2022-10-16T01:14:27;104076.22;;;13.55;100.00
13732;BME280;6937;56.096;12.664;2022-10-16T01:17:18;104071.94;;;13.49;100.00
13732;BME280;6937;56.096;12.664;2022-10-16T01:20:14;104065.69;;;13.49;100.00
13732;BME280;6937;56.096;12.664;2022-10-16T01:25:36;104006.94;;;13.37;100.00
13732;BME280;6937;56.096;12.664;2022-10-16T01:28:05;103993.75;;;13.29;100.00
13732;BME280;6937;56.096;12.664;2022-10-16T01:30:35;104029.22;;;13.40;100.00
13732;BME280;6937;56.096;12.664;2022-10-16T01:35:43;103946.06;;;13.36;100.00
13732;BME280;6937;56.096;12.664;2022-10-16T01:40:38;103903.34;;;13.28;100.00
13732;BME280;6937;56.096;12.664;2022-10-16T01:43:20;103827.66;;;12.89;100.00
13732;BME280;6937;56.096;12.664;2022-10-16T01:45:48;103894.41;;;13.28;100.00
13732;BME280;6937;56.096;12.664;2022-10-16T01:48:17;103850.63;;;13.24;100.00
13732;BME280;6937;56.096;12.664;2022-10-16T01:50:44;103848.94;;;13.22;100.00
13732;BME280;6937;56.096;12.664;2022-10-16T01:53:12;103747.53;;;12.77;100.00
13732;BME280;6937;56.096;12.664;2022-10-16T01:55:45;103729.91;;;12.69;100.00
13732;BME280;6937;56.096;12.664;2022-10-16T01:58:13;103792.66;;;13.19;100.00
13732;BME280;6937;56.096;12.664;2022-10-16T02:00:42;103749.56;;;13.22;100.00
13732;BME280;6937;56.096;12.664;2022-10-16T02:03:09;103733.56;;;13.19;100.00
13732;BME280;6937;56.096;12.664;2022-10-16T02:05:45;103723.84;;;13.15;100.00
13732;BME280;6937;56.096;12.664;2022-10-16T02:08:11;103729.84;;;13.23;100.00
13732;BME280;6937;56.096;12.664;2022-10-16T02:10:38;103689.63;;;13.20;100.00
13732;BME280;6937;56.096;12.664;2022-10-16T02:15:32;103648.28;;;13.24;100.00
13732;BME280;6937;56.096;12.664;2022-10-16T02:17:58;103575.34;;;12.88;100.00
13732;BME280;6937;56.096;12.664;2022-10-16T02:20:27;103626.63;;;13.28;100.00
13732;BME280;6937;56.096;12.664;2022-10-16T02:22:55;103619.72;;;13.23;100.00
13732;BME280;6937;56.096;12.664;2022-10-16T02:25:26;103627.75;;;13.23;100.00
13732;BME280;6937;56.096;12.664;2022-10-16T02:28:00;103645.69;;;13.22;100.00
13732;BME280;6937;56.096;12.664;2022-10-16T02:30:47;103632.13;;;13.25;100.00
13732;BME280;6937;56.096;12.664;2022-10-16T02:33:15;103641.06;;;13.26;100.00
13732;BME280;6937;56.096;12.664;2022-10-16T02:35:43;103603.03;;;13.13;100.00
13732;BME280;6937;56.096;12.664;2022-10-16T02:38:10;103593.31;;;13.09;100.00
13732;BME280;6937;56.096;12.664;2022-10-16T02:40:37;103584.84;;;13.21;100.00
13732;BME280;6937;56.096;12.664;2022-10-16T02:43:04;103542.66;;;13.00;100.00
13732;BME280;6937;56.096;12.664;2022-10-16T02:45:30;103502.34;;;12.78;100.00
13732;BME280;6937;56.096;12.664;2022-10-16T02:47:56;103546.66;;;13.13;100.00
13732;BME280;6937;56.096;12.664;2022-10-16T02:50:21;103472.34;;;12.67;100.00
13732;BME280;6937;56.096;12.664;2022-10-16T02:52:47;103487.75;;;12.85;100.00
13732;BME280;6937;56.096;12.664;2022-10-16T02:55:13;103413.31;;;12.67;100.00
13732;BME280;6937;56.096;12.664;2022-10-16T02:57:38;103500.25;;;13.10;100.00
13732;BME280;6937;56.096;12.664;2022-10-16T03:00:06;103399.16;;;12.85;100.00
13732;BME280;6937;56.096;12.664;2022-10-16T03:02:32;103438.31;;;12.91;100.00
13732;BME280;6937;56.096;12.664;2022-10-16T03:04:57;103430.50;;;12.85;100.00
13732;BME280;6937;56.096;12.664;2022-10-16T03:07:22;103412.19;;;12.73;100.00
13732;BME280;6937;56.096;12.664;2022-10-16T03:09:48;103458.72;;;12.95;100.00
13732;BME280;6937;56.096;12.664;2022-10-16T03:12:13;103440.00;;;12.93;100.00
13732;BME280;6937;56.096;12.664;2022-10-16T03:14:38;103393.16;;;12.79;100.00
13732;BME280;6937;56.096;12.664;2022-10-16T03:17:05;103415.31;;;12.84;100.00
13732;BME280;6937;56.096;12.664;2022-10-16T03:19:30;103440.09;;;12.90;100.00
13732;BME280;6937;56.096;12.664;2022-10-16T03:21:55;103426.94;;;12.84;100.00
13732;BME280;6937;56.096;12.664;2022-10-16T03:24:21;103365.78;;;12.47;100.00
13732;BME280;6937;56.096;12.664;2022-10-16T03:26:46;103427.13;;;12.80;100.00
13732;BME280;6937;56.096;12.664;2022-10-16T03:29:11;103352.97;;;12.32;100.00
13732;BME280;6937;56.096;12.664;2022-10-16T03:31:37;103460.25;;;12.79;100.00
13732;BME280;6937;56.096;12.664;2022-10-16T03:34:02;103477.31;;;12.78;100.00
13732;BME280;6937;56.096;12.664;2022-10-16T03:36:28;103454.03;;;12.78;100.00
13732;BME280;6937;56.096;12.664;2022-10-16T03:38:53;103404.59;;;12.37;100.00
13732;BME280;6937;56.096;12.664;2022-10-16T03:41:18;103443.28;;;12.78;100.00
13732;BME280;6937;56.096;12.664;2022-10-16T03:43:44;103373.59;;;12.75;100.00
13732;BME280;6937;56.096;12.664;2022-10-16T03:46:09;103400.75;;;12.68;100.00
13732;BME280;6937;56.096;12.664;2022-10-16T03:48:34;103408.94;;;12.65;100.00
13732;BME280;6937;56.096;12.664;2022-10-16T03:51:00;103409.56;;;12.71;100.00
13732;BME280;6937;56.096;12.664;2022-10-16T03:53:25;103369.81;;;12.59;100.00
13732;BME280;6937;56.096;12.664;2022-10-16T03:55:50;103387.97;;;12.74;100.00
13732;BME280;6937;56.096;12.664;2022-10-16T03:58:16;103403.03;;;12.78;100.00
13732;BME280;6937;56.096;12.664;2022-10-16T04:00:44;103287.69;;;12.33;100.00
13732;BME280;6937;56.096;12.664;2022-10-16T04:03:10;103354.91;;;12.74;100.00
13732;BME280;6937;56.096;12.664;2022-10-16T04:05:36;103391.47;;;12.76;100.00
13732;BME280;6937;56.096;12.664;2022-10-16T04:08:02;103422.66;;;12.79;100.00
13732;BME280;6937;56.096;12.664;2022-10-16T04:10:27;103453.03;;;12.81;100.00
13732;BME280;6937;56.096;12.664;2022-10-16T04:12:53;103440.41;;;12.83;100.00
13732;BME280;6937;56.096;12.664;2022-10-16T04:15:21;103468.84;;;12.88;100.00
13732;BME280;6937;56.096;12.664;2022-10-16T04:17:47;103412.16;;;12.51;100.00
13732;BME280;6937;56.096;12.664;2022-10-16T04:20:12;103496.25;;;12.96;100.00
13732;BME280;6937;56.096;12.664;2022-10-16T04:22:37;103433.56;;;12.97;100.00
13732;BME280;6937;56.096;12.664;2022-10-16T04:25:04;103438.25;;;12.92;100.00
13732;BME280;6937;56.096;12.664;2022-10-16T04:27:29;103477.63;;;12.92;100.00
13732;BME280;6937;56.096;12.664;2022-10-16T04:29:57;103440.19;;;12.42;100.00
13732;BME280;6937;56.096;12.664;2022-10-16T04:32:22;103532.81;;;12.52;100.00
13732;BME280;6937;56.096;12.664;2022-10-16T04:34:47;103640.56;;;12.90;100.00
13732;BME280;6937;56.096;12.664;2022-10-16T04:37:13;103646.13;;;12.85;100.00
13732;BME280;6937;56.096;12.664;2022-10-16T04:39:39;103651.50;;;12.85;100.00
13732;BME280;6937;56.096;12.664;2022-10-16T04:42:04;103605.78;;;12.87;100.00
13732;BME280;6937;56.096;12.664;2022-10-16T04:44:29;103596.22;;;12.55;100.00
13732;BME280;6937;56.096;12.664;2022-10-16T04:46:55;103673.66;;;12.90;100.00
13732;BME280;6937;56.096;12.664;2022-10-16T04:49:20;103679.88;;;12.92;100.00
13732;BME280;6937;56.096;12.664;2022-10-16T04:51:46;103730.00;;;12.92;100.00
13732;BME280;6937;56.096;12.664;2022-10-16T04:54:11;103750.44;;;12.96;100.00
13732;BME280;6937;56.096;12.664;2022-10-16T04:56:36;103682.97;;;12.55;100.00
13732;BME280;6937;56.096;12.664;2022-10-16T04:59:09;103755.97;;;12.91;100.00
13732;BME280;6937;56.096;12.664;2022-10-16T05:01:34;103784.59;;;12.92;100.00
13732;BME280;6937;56.096;12.664;2022-10-16T05:03:59;103770.16;;;12.95;100.00
13732;BME280;6937;56.096;12.664;2022-10-16T05:06:25;103813.97;;;12.97;100.00
13732;BME280;6937;56.096;12.664;2022-10-16T05:08:50;103812.34;;;12.91;100.00
13732;BME280;6937;56.096;12.664;2022-10-16T05:11:16;103814.25;;;12.88;100.00
13732;BME280;6937;56.096;12.664;2022-10-16T05:13:41;103765.56;;;12.72;100.00
13732;BME280;6937;56.096;12.664;2022-10-16T05:16:06;103697.56;;;12.98;100.00
13732;BME280;6937;56.096;12.664;2022-10-16T05:18:32;103754.44;;;13.09;100.00
13732;BME280;6937;56.096;12.664;2022-10-16T05:20:57;103754.56;;;13.06;100.00
13732;BME280;6937;56.096;12.664;2022-10-16T05:23:22;103737.44;;;12.57;100.00
13732;BME280;6937;56.096;12.664;2022-10-16T05:25:58;103856.94;;;12.97;100.00
13732;BME280;6937;56.096;12.664;2022-10-16T05:28:25;103893.44;;;13.02;100.00
13732;BME280;6937;56.096;12.664;2022-10-16T05:30:51;103857.25;;;12.86;100.00
13732;BME280;6937;56.096;12.664;2022-10-16T05:33:16;103893.38;;;13.04;100.00
13732;BME280;6937;56.096;12.664;2022-10-16T05:35:42;103902.94;;;13.14;100.00
13732;BME280;6937;56.096;12.664;2022-10-16T05:38:09;103873.41;;;13.13;100.00
13732;BME280;6937;56.096;12.664;2022-10-16T05:40:34;103851.00;;;13.14;100.00
13732;BME280;6937;56.096;12.664;2022-10-16T05:43:00;103813.72;;;13.04;100.00
13732;BME280;6937;56.096;12.664;2022-10-16T05:45:25;103770.44;;;13.14;100.00
13732;BME280;6937;56.096;12.664;2022-10-16T05:47:51;103791.88;;;13.15;100.00
13732;BME280;6937;56.096;12.664;2022-10-16T05:50:16;103799.97;;;13.14;100.00
13732;BME280;6937;56.096;12.664;2022-10-16T05:52:41;103784.91;;;13.10;100.00
13732;BME280;6937;56.096;12.664;2022-10-16T05:55:07;103722.44;;;13.03;100.00
13732;BME280;6937;56.096;12.664;2022-10-16T05:57:32;103727.59;;;13.09;100.00
13732;BME280;6937;56.096;12.664;2022-10-16T05:59:58;103714.16;;;13.11;100.00
13732;BME280;6937;56.096;12.664;2022-10-16T06:02:23;103713.03;;;13.16;100.00
13732;BME280;6937;56.096;12.664;2022-10-16T06:04:49;103684.09;;;12.99;100.00
13732;BME280;6937;56.096;12.664;2022-10-16T06:07:14;103715.38;;;13.00;100.00
13732;BME280;6937;56.096;12.664;2022-10-16T06:09:40;103748.03;;;12.88;100.00
13732;BME280;6937;56.096;12.664;2022-10-16T06:12:05;103791.13;;;12.84;100.00
13732;BME280;6937;56.096;12.664;2022-10-16T06:14:30;103888.72;;;13.09;100.00
13732;BME280;6937;56.096;12.664;2022-10-16T06:16:56;103902.03;;;13.14;100.00
13732;BME280;6937;56.096;12.664;2022-10-16T06:19:21;103842.09;;;12.85;100.00
13732;BME280;6937;56.096;12.664;2022-10-16T06:21:48;103874.50;;;13.07;100.00
13732;BME280;6937;56.096;12.664;2022-10-16T06:24:13;103829.72;;;12.81;100.00
13732;BME280;6937;56.096;12.664;2022-10-16T06:26:39;103882.22;;;13.18;100.00
13732;BME280;6937;56.096;12.664;2022-10-16T06:29:04;103872.63;;;13.09;100.00
13732;BME280;6937;56.096;12.664;2022-10-16T06:31:30;103898.06;;;13.25;100.00
13732;BME280;6937;56.096;12.664;2022-10-16T06:33:58;103827.72;;;12.86;100.00
13732;BME280;6937;56.096;12.664;2022-10-16T06:36:24;103886.41;;;13.26;100.00
13732;BME280;6937;56.096;12.664;2022-10-16T06:38:50;103907.69;;;13.32;100.00
13732;BME280;6937;56.096;12.664;2022-10-16T06:41:17;103845.34;;;12.95;100.00
13732;BME280;6937;56.096;12.664;2022-10-16T06:43:43;103903.31;;;13.30;100.00
13732;BME280;6937;56.096;12.664;2022-10-16T06:46:11;103894.47;;;13.26;100.00
13732;BME280;6937;56.096;12.664;2022-10-16T06:48:38;103936.06;;;13.41;100.00
13732;BME280;6937;56.096;12.664;2022-10-16T06:51:06;103938.00;;;13.36;100.00
13732;BME280;6937;56.096;12.664;2022-10-16T06:53:33;103966.38;;;13.44;100.00
13732;BME280;6937;56.096;12.664;2022-10-16T06:56:13;103961.22;;;13.38;100.00
13732;BME280;6937;56.096;12.664;2022-10-16T06:58:39;103980.81;;;13.42;100.00
13732;BME280;6937;56.096;12.664;2022-10-16T07:01:06;103972.13;;;13.34;100.00
13732;BME280;6937;56.096;12.664;2022-10-16T07:03:32;103984.22;;;13.47;100.00
13732;BME280;6937;56.096;12.664;2022-10-16T07:06:04;103962.78;;;13.45;100.00
13732;BME280;6937;56.096;12.664;2022-10-16T07:08:34;103922.03;;;13.31;100.00
13732;BME280;6937;56.096;12.664;2022-10-16T07:11:05;103942.94;;;13.49;100.00
13732;BME280;6937;56.096;12.664;2022-10-16T07:13:33;103923.16;;;13.50;100.00
13732;BME280;6937;56.096;12.664;2022-10-16T07:16:04;103898.53;;;13.38;100.00
13732;BME280;6937;56.096;12.664;2022-10-16T07:18:30;103905.31;;;13.49;100.00
13732;BME280;6937;56.096;12.664;2022-10-16T07:21:06;103871.06;;;13.54;100.00
13732;BME280;6937;56.096;12.664;2022-10-16T07:23:32;103738.72;;;12.98;100.00
13732;BME280;6937;56.096;12.664;2022-10-16T07:25:57;103779.25;;;13.17;100.00
13732;BME280;6937;56.096;12.664;2022-10-16T07:28:22;103803.97;;;13.53;100.00
13732;BME280;6937;56.096;12.664;2022-10-16T07:30:48;103769.97;;;13.50;100.00
13732;BME280;6937;56.096;12.664;2022-10-16T07:33:14;103769.59;;;13.61;100.00
13732;BME280;6937;56.096;12.664;2022-10-16T07:35:48;103708.00;;;13.55;100.00
13732;BME280;6937;56.096;12.664;2022-10-16T07:38:14;103651.28;;;13.63;100.00
13732;BME280;6937;56.096;12.664;2022-10-16T07:40:39;103605.72;;;13.60;100.00
13732;BME280;6937;56.096;12.664;2022-10-16T07:43:04;103395.59;;;13.50;100.00
13732;BME280;6937;56.096;12.664;2022-10-16T07:45:30;103291.13;;;13.63;100.00
13732;BME280;6937;56.096;12.664;2022-10-16T07:47:55;103168.38;;;13.63;100.00
13732;BME280;6937;56.096;12.664;2022-10-16T07:50:21;103058.25;;;13.62;100.00
13732;BME280;6937;56.096;12.664;2022-10-16T07:52:47;102986.44;;;13.09;100.00
13732;BME280;6937;56.096;12.664;2022-10-16T07:55:12;103065.88;;;13.71;100.00
13732;BME280;6937;56.096;12.664;2022-10-16T07:57:38;102958.38;;;13.71;100.00
13732;BME280;6937;56.096;12.664;2022-10-16T08:00:04;102875.38;;;13.82;100.00
13732;BME280;6937;56.096;12.664;2022-10-16T08:02:29;102786.66;;;13.82;100.00
13732;BME280;6937;56.096;12.664;2022-10-16T08:04:55;102701.59;;;13.81;100.00
13732;BME280;6937;56.096;12.664;2022-10-16T08:07:20;102586.97;;;13.48;100.00
13732;BME280;6937;56.096;12.664;2022-10-16T08:09:49;102588.78;;;13.95;100.00
13732;BME280;6937;56.096;12.664;2022-10-16T08:12:14;101664.22;;;13.93;100.00
13732;BME280;6937;56.096;12.664;2022-10-16T08:14:40;101514.44;;;13.95;100.00
13732;BME280;6937;56.096;12.664;2022-10-16T08:17:05;101475.97;;;13.95;100.00
13732;BME280;6937;56.096;12.664;2022-10-16T08:19:31;101455.91;;;13.88;100.00
13732;BME280;6937;56.096;12.664;2022-10-16T08:21:59;101397.78;;;13.87;100.00
13732;BME280;6937;56.096;12.664;2022-10-16T08:24:24;101368.75;;;13.68;100.00
13732;BME280;6937;56.096;12.664;2022-10-16T08:26:50;101384.47;;;13.96;100.00
13732;BME280;6937;56.096;12.664;2022-10-16T08:29:15;101333.03;;;13.90;100.00
13732;BME280;6937;56.096;12.664;2022-10-16T08:31:40;101310.09;;;13.97;100.00
13732;BME280;6937;56.096;12.664;2022-10-16T08:34:06;101296.91;;;14.05;100.00
13732;BME280;6937;56.096;12.664;2022-10-16T08:36:31;101177.66;;;14.06;100.00
13732;BME280;6937;56.096;12.664;2022-10-16T08:38:57;101138.19;;;14.07;100.00
13732;BME280;6937;56.096;12.664;2022-10-16T08:47:20;101028.44;;;14.23;100.00
13732;BME280;6937;56.096;12.664;2022-10-16T08:49:57;101022.22;;;14.22;100.00
13732;BME280;6937;56.096;12.664;2022-10-16T08:52:26;100983.28;;;14.17;100.00
13732;BME280;6937;56.096;12.664;2022-10-16T08:54:55;100970.22;;;14.33;100.00
13732;BME280;6937;56.096;12.664;2022-10-16T08:57:22;100874.81;;;14.07;100.00
13732;BME280;6937;56.096;12.664;2022-10-16T08:59:48;100916.59;;;14.52;100.00
13732;BME280;6937;56.096;12.664;2022-10-16T09:02:34;100870.22;;;14.60;100.00
13732;BME280;6937;56.096;12.664;2022-10-16T09:15:58;100576.03;;;14.51;100.00
13732;BME280;6937;56.096;12.664;2022-10-16T09:18:35;100541.06;;;14.51;100.00
13732;BME280;6937;56.096;12.664;2022-10-16T09:21:19;100545.03;;;14.57;100.00
13732;BME280;6937;56.096;12.664;2022-10-16T09:23:47;100555.09;;;14.83;100.00
13732;BME280;6937;56.096;12.664;2022-10-16T09:26:14;100490.63;;;14.82;100.00
13732;BME280;6937;56.096;12.664;2022-10-16T09:28:41;100418.78;;;14.55;100.00
13732;BME280;6937;56.096;12.664;2022-10-16T09:31:24;100447.00;;;14.97;100.00
13732;BME280;6937;56.096;12.664;2022-10-16T09:33:54;100407.59;;;14.96;100.00
13732;BME280;6937;56.096;12.664;2022-10-16T09:36:21;100274.72;;;14.80;100.00
13732;BME280;6937;56.096;12.664;2022-10-16T09:38:48;100296.06;;;15.09;100.00
13732;BME280;6937;56.096;12.664;2022-10-16T09:41:22;100259.03;;;15.20;100.00
13732;BME280;6937;56.096;12.664;2022-10-16T09:43:56;100249.94;;;15.39;100.00
13732;BME280;6937;56.096;12.664;2022-10-16T09:46:33;100222.25;;;15.46;100.00
13732;BME280;6937;56.096;12.664;2022-10-16T09:49:04;100180.16;;;15.45;100.00
13732;BME280;6937;56.096;12.664;2022-10-16T09:51:35;100068.63;;;15.05;100.00
13732;BME280;6937;56.096;12.664;2022-10-16T09:56:35;100062.22;;;15.49;100.00
13732;BME280;6937;56.096;12.664;2022-10-16T09:59:15;100025.25;;;15.59;100.00
13732;BME280;6937;56.096;12.664;2022-10-16T10:01:48;100033.50;;;15.58;100.00
13732;BME280;6937;56.096;12.664;2022-10-16T10:04:15;100021.75;;;15.67;100.00
13732;BME280;6937;56.096;12.664;2022-10-16T10:06:49;100000.03;;;15.68;100.00
13732;BME280;6937;56.096;12.664;2022-10-16T10:16:49;99910.81;;;15.79;100.00
13732;BME280;6937;56.096;12.664;2022-10-16T10:19:20;99897.22;;;15.89;100.00
13732;BME280;6937;56.096;12.664;2022-10-16T10:21:47;99861.50;;;15.87;100.00
13732;BME280;6937;56.096;12.664;2022-10-16T10:24:15;99841.47;;;16.06;100.00
13732;BME280;6937;56.096;12.664;2022-10-16T10:29:20;99794.47;;;15.84;100.00
13732;BME280;6937;56.096;12.664;2022-10-16T10:40:51;99633.06;;;16.05;100.00
13732;BME280;6937;56.096;12.664;2022-10-16T10:45:47;99635.16;;;15.79;100.00
13732;BME280;6937;56.096;12.664;2022-10-16T10:51:27;99669.06;;;16.28;100.00
13732;BME280;6937;56.096;12.664;2022-10-16T10:57:00;99702.50;;;16.50;100.00
13732;BME280;6937;56.096;12.664;2022-10-16T11:07:23;99670.00;;;16.43;100.00
13732;BME280;6937;56.096;12.664;2022-10-16T11:09:58;99740.22;;;16.74;100.00
13732;BME280;6937;56.096;12.664;2022-10-16T11:12:34;99790.31;;;16.69;100.00
13732;BME280;6937;56.096;12.664;2022-10-16T11:17:48;99832.34;;;16.31;100.00
13732;BME280;6937;56.096;12.664;2022-10-16T11:21:04;99951.00;;;16.55;100.00
13732;BME280;6937;56.096;12.664;2022-10-16T11:26:14;100069.41;;;16.58;100.00
13732;BME280;6937;56.096;12.664;2022-10-16T11:28:53;100121.53;;;16.67;100.00
13732;BME280;6937;56.096;12.664;2022-10-16T11:31:34;100165.03;;;16.64;100.00
13732;BME280;6937;56.096;12.664;2022-10-16T11:34:32;100196.94;;;16.68;100.00
13732;BME280;6937;56.096;12.664;2022-10-16T11:36:59;100209.41;;;16.77;100.00
13732;BME280;6937;56.096;12.664;2022-10-16T11:39:29;100236.94;;;16.81;100.00
13732;BME280;6937;56.096;12.664;2022-10-16T11:42:09;100204.66;;;16.63;100.00
13732;BME280;6937;56.096;12.664;2022-10-16T11:47:33;100271.53;;;16.85;100.00
13732;BME280;6937;56.096;12.664;2022-10-16T11:55:53;100339.94;;;16.68;100.00
13732;BME280;6937;56.096;12.664;2022-10-16T11:58:29;100382.78;;;16.71;100.00
13732;BME280;6937;56.096;12.664;2022-10-16T12:04:03;100422.59;;;17.03;100.00
13732;BME280;6937;56.096;12.664;2022-10-16T12:06:43;100457.03;;;17.01;100.00
13732;BME280;6937;56.096;12.664;2022-10-16T12:09:28;100456.50;;;16.98;100.00
13732;BME280;6937;56.096;12.664;2022-10-16T12:11:54;100477.53;;;17.12;100.00
13732;BME280;6937;56.096;12.664;2022-10-16T12:17:02;100496.28;;;17.13;100.00
13732;BME280;6937;56.096;12.664;2022-10-16T12:19:29;100492.88;;;17.11;100.00
13732;BME280;6937;56.096;12.664;2022-10-16T12:21:57;100506.97;;;16.97;100.00
13732;BME280;6937;56.096;12.664;2022-10-16T12:24:42;100477.94;;;16.73;100.00
13732;BME280;6937;56.096;12.664;2022-10-16T12:27:27;100551.16;;;16.96;100.00
13732;BME280;6937;56.096;12.664;2022-10-16T12:30:01;100469.75;;;16.48;100.00
13732;BME280;6937;56.096;12.664;2022-10-16T12:32:34;100618.97;;;16.75;100.00
13732;BME280;6937;56.096;12.664;2022-10-16T12:35:02;100565.88;;;16.49;100.00
13732;BME280;6937;56.096;12.664;2022-10-16T12:37:33;100625.59;;;16.81;100.00
13732;BME280;6937;56.096;12.664;2022-10-16T12:39:59;100591.97;;;16.58;100.00
13732;BME280;6937;56.096;12.664;2022-10-16T12:42:36;100649.50;;;16.94;100.00
13732;BME280;6937;56.096;12.664;2022-10-16T12:45:24;100613.34;;;16.86;100.00
13732;BME280;6937;56.096;12.664;2022-10-16T12:47:53;100678.28;;;17.03;100.00
13732;BME280;6937;56.096;12.664;2022-10-16T12:50:38;100574.66;;;16.33;100.00
13732;BME280;6937;56.096;12.664;2022-10-16T12:53:25;100579.19;;;16.15;100.00
13732;BME280;6937;56.096;12.664;2022-10-16T12:58:52;100604.09;;;15.99;100.00
13732;BME280;6937;56.096;12.664;2022-10-16T13:20:58;100907.13;;;11.48;100.00
13732;BME280;6937;56.096;12.664;2022-10-16T13:23:36;100840.00;;;11.03;100.00
13732;BME280;6937;56.096;12.664;2022-10-16T13:28:50;100895.38;;;11.14;100.00
13732;BME280;6937;56.096;12.664;2022-10-16T13:31:22;100920.13;;;11.41;100.00
13732;BME280;6937;56.096;12.664;2022-10-16T13:33:51;100927.44;;;11.39;100.00
13732;BME280;6937;56.096;12.664;2022-10-16T13:36:21;100983.13;;;11.94;100.00
13732;BME280;6937;56.096;12.664;2022-10-16T13:38:47;101006.94;;;12.45;100.00
13732;BME280;6937;56.096;12.664;2022-10-16T13:41:17;101031.28;;;12.66;100.00
13732;BME280;6937;56.096;12.664;2022-10-16T13:43:46;101101.94;;;13.12;100.00
13732;BME280;6937;56.096;12.664;2022-10-16T13:48:38;101097.16;;;13.16;100.00
13732;BME280;6937;56.096;12.664;2022-10-16T13:51:15;101049.81;;;13.15;100.00
13732;BME280;6937;56.096;12.664;2022-10-16T13:53:42;101171.81;;;13.79;100.00
13732;BME280;6937;56.096;12.664;2022-10-16T13:56:14;101155.34;;;13.94;100.00
13732;BME280;6937;56.096;12.664;2022-10-16T13:58:40;101132.09;;;14.16;100.00
13732;BME280;6937;56.096;12.664;2022-10-16T14:01:18;101110.19;;;14.31;100.00
13732;BME280;6937;56.096;12.664;2022-10-16T14:03:45;101097.66;;;14.52;100.00
13732;BME280;6937;56.096;12.664;2022-10-16T14:06:20;101023.47;;;14.50;100.00
13732;BME280;6937;56.096;12.664;2022-10-16T14:08:54;100988.31;;;14.63;100.00
13732;BME280;6937;56.096;12.664;2022-10-16T14:11:23;100993.59;;;14.74;100.00
13732;BME280;6937;56.096;12.664;2022-10-16T14:13:50;100987.75;;;14.89;100.00
13732;BME280;6937;56.096;12.664;2022-10-16T14:16:21;100893.53;;;14.49;100.00
13732;BME280;6937;56.096;12.664;2022-10-16T14:19:04;100946.72;;;14.97;100.00
13732;BME280;6937;56.096;12.664;2022-10-16T14:21:36;100967.31;;;15.08;100.00
13732;BME280;6937;56.096;12.664;2022-10-16T14:24:13;100923.34;;;14.97;100.00
13732;BME280;6937;56.096;12.664;2022-10-16T14:26:43;100886.22;;;14.91;100.00
13732;BME280;6937;56.096;12.664;2022-10-16T14:29:19;100911.06;;;15.05;100.00
13732;BME280;6937;56.096;12.664;2022-10-16T14:32:02;100885.28;;;15.02;100.00
13732;BME280;6937;56.096;12.664;2022-10-16T14:34:34;100888.50;;;14.96;100.00
13732;BME280;6937;56.096;12.664;2022-10-16T14:37:08;100870.97;;;15.02;100.00
13732;BME280;6937;56.096;12.664;2022-10-16T14:39:35;100897.78;;;15.13;100.00
13732;BME280;6937;56.096;12.664;2022-10-16T14:42:01;100878.53;;;15.17;100.00
13732;BME280;6937;56.096;12.664;2022-10-16T14:44:32;100839.34;;;15.04;100.00
13732;BME280;6937;56.096;12.664;2022-10-16T14:47:07;100859.06;;;15.04;100.00
13732;BME280;6937;56.096;12.664;2022-10-16T14:49:33;100894.09;;;15.14;100.00